Carrabassett Regional Airport (B21)
Carrabassett, ME
Field Elevation: 874
Lat: 45°05.12N  Long: 70°12.98W
CTAF/Unicom Freq: 122.8000
   
    
Weather Advisories
2020-01-28   21:06 Z
Altimeter 29.70" Hg
Wind 010° @ 8 KT
Gusts 15 KT
Visibility 10 SM
Temperature -2° C (28° F)
Dewpoint -8° C (18° F)
Relative Humidity 64%
Density Altitude --
Condensation Altitude 3,900 feet
Wind Chill: -7° C (19° F)
Wind and Runways
Indicated Runway = 35
Headwind = 8 kt
Crosswind = 3 kt
History
 
 
 
More Info
NOAA Forecast
 
 
About Us
Belfort Instrument
 
 
FAA Disclaimer: The data displayed is for advisory purposes only and is not to be used for flight planning or operations. For official data, please call (not available) to hear the current automated AWOS voice message.
  METAR B21 282106Z AUTO 01008G15KT 10 SM M02/M08 A2970